createdAt,value
2022-08-05T04:00:37.824Z,19.90
2022-08-05T04:03:15.003Z,20.20
2022-08-05T04:06:00.401Z,20.60
2022-08-05T04:08:36.438Z,19.80
2022-08-05T04:11:09.966Z,19.80
2022-08-05T04:13:51.358Z,19.80
2022-08-05T04:16:32.718Z,19.80
2022-08-05T04:19:04.550Z,19.80
2022-08-05T04:22:08.133Z,19.80
2022-08-05T04:24:34.041Z,19.80
2022-08-05T04:27:05.873Z,19.80
2022-08-05T04:29:39.265Z,19.70
2022-08-05T04:32:12.407Z,19.60
2022-08-05T04:34:44.364Z,19.60
2022-08-05T04:37:16.624Z,19.60
2022-08-05T04:39:52.894Z,19.50
2022-08-05T04:50:11.457Z,19.70
2022-08-05T04:52:43.417Z,19.70
2022-08-05T04:55:16.566Z,19.70
2022-08-05T04:57:54.427Z,19.70
2022-08-05T05:00:26.357Z,19.80
2022-08-05T05:03:03.670Z,19.80
2022-08-05T05:06:36.656Z,19.80
2022-08-05T05:08:30.114Z,19.80
2022-08-05T05:11:02.223Z,19.80
2022-08-05T05:13:43.280Z,19.90
2022-08-05T05:16:15.562Z,19.90
2022-08-05T05:32:16.180Z,19.90
2022-08-05T05:34:52.462Z,19.80
2022-08-05T05:37:24.491Z,19.80
2022-08-05T05:53:21.578Z,20.10
2022-08-05T06:01:12.798Z,20.20
2022-08-05T06:04:00.552Z,20.10
2022-08-05T06:30:44.637Z,20.50
2022-08-05T06:33:19.253Z,20.50
2022-08-05T21:22:23.879Z,18.00
2022-08-05T21:24:55.749Z,18.00
2022-08-05T21:27:27.642Z,18.00
2022-08-05T21:30:17.368Z,18.00
2022-08-05T21:32:49.477Z,18.00
2022-08-05T21:35:29.971Z,17.90
2022-08-05T21:38:15.159Z,17.80
2022-08-05T21:40:48.776Z,17.70
2022-08-05T21:43:24.428Z,17.60
2022-08-05T21:46:00.262Z,17.60
2022-08-05T21:48:32.222Z,17.60
2022-08-05T21:51:25.320Z,17.50
2022-08-05T21:53:59.603Z,17.50
2022-08-05T21:56:35.370Z,17.50
2022-08-05T21:59:24.191Z,17.40
